Time;durP1;ratioP1;P1;durP2;ratioP2;P2;SDS_P1;SDS_P2;PMS_P1;PMS_P2;Temp;Humidity;BMP_temperature;BMP_pressure;BME280_temperature;BME280_humidity;BME280_pressure;Samples;Min_cycle;Max_cycle;Signal;HPM_P1;HPM_P2
2023/06/14 00:00:53;;;;;;;;;5.00;4.00;;;;;;;;4997587;28;45604;-88
2023/06/14 00:03:22;;;;;;;;;5.00;4.00;;;;;;;;4997526;28;47030;-88
2023/06/14 00:05:48;;;;;;;;;5.50;4.00;;;;;;;;4997472;28;45289;-88
2023/06/14 00:08:13;;;;;;;;;6.25;5.00;;;;;;;;4997563;28;45460;-87
2023/06/14 00:10:41;;;;;;;;;11.00;4.50;;;;;;;;4997558;28;45393;-88
2023/06/14 00:13:09;;;;;;;;;4.50;4.25;;;;;;;;4996639;28;45522;-87
2023/06/14 00:15:34;;;;;;;;;9.00;4.75;;;;;;;;4997356;28;45778;-88
2023/06/14 00:18:05;;;;;;;;;5.50;5.00;;;;;;;;4996165;28;45372;-88
2023/06/14 00:20:32;;;;;;;;;8.25;4.50;;;;;;;;4997532;28;45345;-87
2023/06/14 00:23:00;;;;;;;;;6.00;4.75;;;;;;;;4997131;28;47165;-87
2023/06/14 00:25:28;;;;;;;;;6.00;5.00;;;;;;;;4997186;28;45215;-88
2023/06/14 00:27:56;;;;;;;;;8.00;6.75;;;;;;;;4995692;28;45187;-88
2023/06/14 00:30:21;;;;;;;;;9.50;5.50;;;;;;;;4995921;28;45329;-88
2023/06/14 00:32:47;;;;;;;;;7.00;4.33;;;;;;;;4997081;28;46805;-88
2023/06/14 00:35:13;;;;;;;;;9.00;4.50;;;;;;;;4995626;28;45311;-88
2023/06/14 00:37:40;;;;;;;;;5.75;4.25;;;;;;;;4996081;28;45375;-88
2023/06/14 00:40:06;;;;;;;;;5.50;4.00;;;;;;;;4997230;28;45442;-88
2023/06/14 00:42:31;;;;;;;;;4.75;3.25;;;;;;;;4996478;28;45527;-87
2023/06/14 00:44:59;;;;;;;;;7.00;5.75;;;;;;;;4997046;28;45371;-87
2023/06/14 00:47:24;;;;;;;;;6.50;4.25;;;;;;;;4997060;28;45427;-88
2023/06/14 00:49:53;;;;;;;;;10.25;5.00;;;;;;;;4996782;28;45456;-87
2023/06/14 00:52:20;;;;;;;;;5.50;4.25;;;;;;;;4996673;28;46219;-87
2023/06/14 00:54:46;;;;;;;;;5.00;4.25;;;;;;;;4996568;28;45242;-87
2023/06/14 00:57:12;;;;;;;;;6.50;5.75;;;;;;;;4995277;28;45359;-87
2023/06/14 00:59:42;;;;;;;;;5.75;5.00;;;;;;;;4995564;28;45311;-88
2023/06/14 01:02:07;;;;;;;;;4.75;4.25;;;;;;;;4996448;28;45570;-87
2023/06/14 01:04:33;;;;;;;;;10.00;4.00;;;;;;;;4996611;28;45330;-87
2023/06/14 01:07:02;;;;;;;;;6.67;5.33;;;;;;;;4995362;28;45353;-87
2023/06/14 01:09:32;;;;;;;;;6.50;5.50;;;;;;;;4996657;28;45503;-87
2023/06/14 01:12:07;;;;;;;;;6.50;5.25;;;;;;;;4995983;28;45480;-86
2023/06/14 01:14:34;;;;;;;;;5.00;5.00;;;;;;;;4996363;28;45382;-87
2023/06/14 01:17:00;;;;;;;;;5.25;5.25;;;;;;;;4996580;28;45330;-87
2023/06/14 01:19:28;;;;;;;;;8.00;6.50;;;;;;;;4996414;28;45576;-87
2023/06/14 01:21:55;;;;;;;;;7.75;6.00;;;;;;;;4996232;28;45761;-87
2023/06/14 01:24:25;;;;;;;;;8.50;5.00;;;;;;;;4996307;28;45350;-87
2023/06/14 01:26:55;;;;;;;;;6.75;4.25;;;;;;;;4995963;28;45475;-87
2023/06/14 01:29:21;;;;;;;;;8.25;6.25;;;;;;;;4996300;28;45468;-86
2023/06/14 01:31:47;;;;;;;;;8.00;5.75;;;;;;;;4996197;28;45372;-87
2023/06/14 01:34:12;;;;;;;;;7.75;5.75;;;;;;;;4996143;28;45334;-88
2023/06/14 01:36:40;;;;;;;;;6.67;6.00;;;;;;;;4995102;28;45393;-87
2023/06/14 01:39:06;;;;;;;;;6.00;6.00;;;;;;;;4995057;28;45614;-87
2023/06/14 01:41:31;;;;;;;;;7.75;7.00;;;;;;;;4995608;28;45507;-87
2023/06/14 01:44:00;;;;;;;;;7.00;6.25;;;;;;;;4997062;28;45388;-87
2023/06/14 01:46:26;;;;;;;;;7.25;4.25;;;;;;;;4996358;28;45448;-87
2023/06/14 01:48:51;;;;;;;;;6.00;5.00;;;;;;;;4995656;28;45470;-87
2023/06/14 01:51:16;;;;;;;;;10.00;5.50;;;;;;;;4995770;28;46319;-87
2023/06/14 01:53:42;;;;;;;;;9.67;8.00;;;;;;;;4995990;28;45285;-87
2023/06/14 01:56:07;;;;;;;;;9.67;7.33;;;;;;;;4995550;28;45534;-87
2023/06/14 01:58:32;;;;;;;;;8.67;6.67;;;;;;;;4994742;28;45607;-87
2023/06/14 02:01:00;;;;;;;;;11.00;7.00;;;;;;;;4995721;28;46314;-86
2023/06/14 02:03:26;;;;;;;;;8.75;6.50;;;;;;;;4995916;28;45339;-87
2023/06/14 02:05:51;;;;;;;;;7.50;7.50;;;;;;;;4995907;28;45338;-87
2023/06/14 02:08:17;;;;;;;;;10.75;8.00;;;;;;;;4995949;28;45581;-87
2023/06/14 02:10:42;;;;;;;;;9.00;7.25;;;;;;;;4995224;28;45393;-87
2023/06/14 02:13:07;;;;;;;;;8.33;5.67;;;;;;;;4994178;28;45252;-87
2023/06/14 02:15:38;;;;;;;;;9.00;8.67;;;;;;;;4995707;28;45259;-88
2023/06/14 02:18:05;;;;;;;;;10.25;9.00;;;;;;;;4995698;28;45515;-87
2023/06/14 02:20:33;;;;;;;;;11.00;10.00;;;;;;;;4995490;28;45464;-87
2023/06/14 02:22:58;;;;;;;;;10.00;6.50;;;;;;;;4978056;28;45367;-87
2023/06/14 02:25:23;;;;;;;;;7.67;7.33;;;;;;;;4995308;28;45394;-86
2023/06/14 02:27:49;;;;;;;;;8.50;6.00;;;;;;;;4996057;28;46169;-86
2023/06/14 02:30:15;;;;;;;;;14.50;7.25;;;;;;;;4995419;28;47194;-86
2023/06/14 02:32:42;;;;;;;;;9.75;9.75;;;;;;;;4995350;28;45365;-86
2023/06/14 02:35:08;;;;;;;;;11.25;8.75;;;;;;;;4995407;28;45318;-86
2023/06/14 02:37:33;;;;;;;;;10.00;8.00;;;;;;;;4995369;28;45481;-86
2023/06/14 02:39:59;;;;;;;;;12.75;8.50;;;;;;;;4994880;28;47327;-86
2023/06/14 02:42:24;;;;;;;;;11.67;7.00;;;;;;;;4995903;28;45453;-87
2023/06/14 02:44:51;;;;;;;;;10.33;7.67;;;;;;;;4995504;28;45335;-87
2023/06/14 02:47:16;;;;;;;;;8.50;7.25;;;;;;;;4995325;28;45611;-87
2023/06/14 02:49:42;;;;;;;;;9.75;7.50;;;;;;;;4995042;28;46483;-86
2023/06/14 02:52:08;;;;;;;;;9.00;7.33;;;;;;;;4995280;28;45507;-87
2023/06/14 02:54:34;;;;;;;;;9.00;8.25;;;;;;;;4995073;28;45437;-86
2023/06/14 02:56:59;;;;;;;;;11.75;8.00;;;;;;;;4977754;28;45357;-86
2023/06/14 02:59:25;;;;;;;;;7.50;5.25;;;;;;;;4995006;28;46077;-85
2023/06/14 03:01:50;;;;;;;;;10.00;8.00;;;;;;;;4997480;28;45515;-86
2023/06/14 03:04:16;;;;;;;;;16.50;9.75;;;;;;;;4998627;28;45342;-86
2023/06/14 03:06:44;;;;;;;;;9.00;7.00;;;;;;;;4998503;28;45437;-86
2023/06/14 03:09:09;;;;;;;;;13.25;7.00;;;;;;;;4998017;28;46355;-87
2023/06/14 03:11:35;;;;;;;;;12.25;10.00;;;;;;;;4998199;28;45761;-85
2023/06/14 03:14:01;;;;;;;;;10.00;7.50;;;;;;;;4998994;28;45437;-85
2023/06/14 03:16:28;;;;;;;;;15.50;7.00;;;;;;;;4998321;28;45345;-85
2023/06/14 03:18:53;;;;;;;;;11.75;7.00;;;;;;;;4980504;28;47189;-86
2023/06/14 03:21:20;;;;;;;;;10.00;7.33;;;;;;;;4998372;28;45488;-86
2023/06/14 03:23:45;;;;;;;;;11.00;8.50;;;;;;;;4997957;28;45341;-86
2023/06/14 03:26:14;;;;;;;;;11.25;8.75;;;;;;;;4998169;28;45375;-86
2023/06/14 03:28:40;;;;;;;;;10.00;8.25;;;;;;;;4997654;28;46327;-85
2023/06/14 03:31:05;;;;;;;;;11.75;9.25;;;;;;;;4980298;28;46173;-87
2023/06/14 03:33:30;;;;;;;;;8.67;6.67;;;;;;;;4998131;28;45474;-86
2023/06/14 03:35:56;;;;;;;;;10.67;9.00;;;;;;;;4979883;28;45409;-86
2023/06/14 03:38:21;;;;;;;;;14.25;10.00;;;;;;;;4997556;28;46324;-86
2023/06/14 03:40:47;;;;;;;;;7.25;7.25;;;;;;;;4997970;28;45346;-86
2023/06/14 03:43:12;;;;;;;;;11.67;9.33;;;;;;;;4998379;28;45187;-85
2023/06/14 03:45:40;;;;;;;;;13.00;7.00;;;;;;;;4998171;28;45220;-88
2023/06/14 03:48:06;;;;;;;;;11.00;9.75;;;;;;;;4997636;28;46246;-84
2023/06/14 03:50:32;;;;;;;;;8.50;7.00;;;;;;;;4997555;28;46091;-87
2023/06/14 03:52:57;;;;;;;;;9.50;9.50;;;;;;;;4980354;28;45703;-86
2023/06/14 03:55:25;;;;;;;;;14.67;10.00;;;;;;;;4997662;28;45469;-86
2023/06/14 03:57:50;;;;;;;;;8.50;7.75;;;;;;;;4997583;28;46397;-87
2023/06/14 04:00:15;;;;;;;;;12.50;8.25;;;;;;;;4997646;28;45568;-86
2023/06/14 04:02:41;;;;;;;;;11.75;9.50;;;;;;;;4979924;28;45348;-87
2023/06/14 04:05:08;;;;;;;;;7.50;7.50;;;;;;;;4997329;28;45575;-85
2023/06/14 04:07:39;;;;;;;;;14.75;10.00;;;;;;;;4997668;28;45473;-88
2023/06/14 04:10:10;;;;;;;;;12.00;9.25;;;;;;;;4997115;28;45530;-87
2023/06/14 04:12:35;;;;;;;;;7.50;5.75;;;;;;;;4997214;28;45513;-87
2023/06/14 04:15:01;;;;;;;;;10.25;8.00;;;;;;;;4995299;28;45480;-86
2023/06/14 04:17:29;;;;;;;;;12.50;8.75;;;;;;;;4996719;28;45369;-86
2023/06/14 04:19:54;;;;;;;;;13.50;8.75;;;;;;;;4997240;28;45449;-87
2023/06/14 04:22:19;;;;;;;;;13.25;9.75;;;;;;;;4995557;28;45367;-86
2023/06/14 04:24:44;;;;;;;;;12.33;11.00;;;;;;;;4995099;28;45363;-87
2023/06/14 04:27:14;;;;;;;;;11.75;7.25;;;;;;;;4996606;28;45366;-87
2023/06/14 04:29:39;;;;;;;;;13.75;10.00;;;;;;;;4997076;28;45840;-87
2023/06/14 04:32:12;;;;;;;;;10.67;9.00;;;;;;;;4996075;28;45371;-87
2023/06/14 04:34:37;;;;;;;;;7.00;7.00;;;;;;;;4996743;28;45511;-86
2023/06/14 04:37:05;;;;;;;;;11.25;9.00;;;;;;;;4997004;28;45370;-87
2023/06/14 04:39:31;;;;;;;;;11.25;9.00;;;;;;;;4997132;28;45309;-86
2023/06/14 04:41:56;;;;;;;;;9.67;8.00;;;;;;;;4997371;28;45525;-86
2023/06/14 04:44:24;;;;;;;;;15.25;10.00;;;;;;;;4997421;28;45556;-86
2023/06/14 04:46:50;;;;;;;;;16.50;9.25;;;;;;;;4996984;28;45468;-87
2023/06/14 04:49:15;;;;;;;;;13.75;9.00;;;;;;;;4996572;28;45328;-86
2023/06/14 04:51:41;;;;;;;;;10.00;8.00;;;;;;;;4996952;28;45255;-86
2023/06/14 04:54:09;;;;;;;;;8.75;8.50;;;;;;;;4996995;28;45556;-86
2023/06/14 04:56:35;;;;;;;;;12.25;10.50;;;;;;;;4996534;28;45443;-86
2023/06/14 04:59:02;;;;;;;;;9.75;9.00;;;;;;;;4996856;28;45415;-86
2023/06/14 05:01:28;;;;;;;;;13.75;10.00;;;;;;;;4996872;28;45417;-86
2023/06/14 05:03:53;;;;;;;;;11.00;9.50;;;;;;;;4996393;28;45536;-86
2023/06/14 05:06:18;;;;;;;;;13.00;11.00;;;;;;;;4996772;28;45537;-86
2023/06/14 05:08:44;;;;;;;;;10.67;10.00;;;;;;;;4996674;28;45365;-87
2023/06/14 05:11:09;;;;;;;;;7.75;7.00;;;;;;;;4996626;28;45378;-87
2023/06/14 05:13:35;;;;;;;;;13.75;10.75;;;;;;;;4997181;28;45601;-86
2023/06/14 05:16:03;;;;;;;;;11.25;10.75;;;;;;;;4996536;28;46339;-86
2023/06/14 05:18:31;;;;;;;;;11.00;6.75;;;;;;;;4996211;28;45362;-86
2023/06/14 05:20:56;;;;;;;;;14.25;11.00;;;;;;;;4996638;28;45381;-86
2023/06/14 05:23:21;;;;;;;;;15.33;11.00;;;;;;;;4978173;28;45328;-86
2023/06/14 05:26:06;;;;;;;;;;;;;;;;;;;;;
2023/06/14 05:28:32;;;;;;;;;13.75;9.00;;;;;;;;4995086;28;72325;-86
2023/06/14 05:30:58;;;;;;;;;11.67;8.33;;;;;;;;4978810;28;45415;-87
2023/06/14 05:33:23;;;;;;;;;14.00;9.00;;;;;;;;4995654;28;45397;-87
2023/06/14 05:35:48;;;;;;;;;10.25;10.00;;;;;;;;4996082;28;45666;-86
2023/06/14 05:38:13;;;;;;;;;14.00;10.00;;;;;;;;4978624;28;46076;-87
2023/06/14 05:40:39;;;;;;;;;15.33;11.67;;;;;;;;4996362;28;45326;-86
2023/06/14 05:43:04;;;;;;;;;12.50;10.00;;;;;;;;4979276;28;45572;-86
2023/06/14 05:45:29;;;;;;;;;15.00;9.33;;;;;;;;4996268;28;45444;-86
2023/06/14 05:47:54;;;;;;;;;13.25;11.50;;;;;;;;4995818;28;45506;-86
2023/06/14 05:50:20;;;;;;;;;12.00;11.00;;;;;;;;4996319;28;45364;-86
2023/06/14 05:52:45;;;;;;;;;11.75;10.25;;;;;;;;4996347;28;45530;-86
2023/06/14 05:55:11;;;;;;;;;16.75;10.00;;;;;;;;4995883;28;46577;-86
2023/06/14 05:57:37;;;;;;;;;16.00;10.25;;;;;;;;4996008;28;45542;-86
2023/06/14 06:00:09;;;;;;;;;11.00;9.00;;;;;;;;4978356;28;45350;-86
2023/06/14 06:02:34;;;;;;;;;12.50;12.00;;;;;;;;4995767;28;45323;-87
2023/06/14 06:05:00;;;;;;;;;11.67;11.00;;;;;;;;4995796;28;46648;-86
2023/06/14 06:07:28;;;;;;;;;10.00;7.50;;;;;;;;4996058;28;45208;-87
2023/06/14 06:09:53;;;;;;;;;12.25;10.75;;;;;;;;4996026;28;45443;-86
2023/06/14 06:12:18;;;;;;;;;16.00;11.00;;;;;;;;4995960;28;45439;-87
2023/06/14 06:14:43;;;;;;;;;16.00;10.75;;;;;;;;4996250;28;45294;-87
2023/06/14 06:17:09;;;;;;;;;10.00;9.00;;;;;;;;4977877;28;45772;-86
2023/06/14 06:19:34;;;;;;;;;12.67;9.33;;;;;;;;4995879;28;45233;-83
2023/06/14 06:21:59;;;;;;;;;10.00;6.00;;;;;;;;4997577;28;45255;-85
2023/06/14 06:24:25;;;;;;;;;10.00;8.50;;;;;;;;4986876;28;46171;-84
2023/06/14 06:26:50;;;;;;;;;13.00;6.75;;;;;;;;4992781;28;45426;-85
2023/06/14 06:29:15;;;;;;;;;13.33;8.33;;;;;;;;4995898;28;45439;-85
2023/06/14 06:31:40;;;;;;;;;10.00;9.00;;;;;;;;4997508;28;45564;-86
2023/06/14 06:34:06;;;;;;;;;9.67;7.00;;;;;;;;5005576;28;46422;-87
2023/06/14 06:36:31;;;;;;;;;10.00;7.00;;;;;;;;4997697;28;45444;-86
2023/06/14 06:38:56;;;;;;;;;11.67;10.00;;;;;;;;4998407;28;45490;-85
2023/06/14 06:41:21;;;;;;;;;11.00;9.33;;;;;;;;4990764;28;45489;-86
2023/06/14 06:43:46;;;;;;;;;7.00;7.00;;;;;;;;4986290;28;46425;-86
2023/06/14 06:46:12;;;;;;;;;10.33;6.00;;;;;;;;4998471;28;45325;-87
2023/06/14 06:48:37;;;;;;;;;8.00;7.00;;;;;;;;4998720;28;45542;-86
2023/06/14 06:51:03;;;;;;;;;4.33;2.33;;;;;;;;4998985;28;45403;-87
2023/06/14 06:53:28;;;;;;;;;7.67;5.00;;;;;;;;4997007;28;46206;-85
2023/06/14 06:55:53;;;;;;;;;6.33;6.33;;;;;;;;4993860;28;45566;-85
2023/06/14 06:58:18;;;;;;;;;6.00;4.67;;;;;;;;4997821;28;45317;-87
2023/06/14 07:00:43;;;;;;;;;11.67;8.33;;;;;;;;4984810;28;45526;-83
2023/06/14 07:03:09;;;;;;;;;6.67;6.67;;;;;;;;4967001;28;46486;-82
2023/06/14 07:05:34;;;;;;;;;8.67;7.00;;;;;;;;4978731;28;45354;-81
2023/06/14 07:07:59;;;;;;;;;8.00;5.67;;;;;;;;4986465;28;45508;-79
2023/06/14 07:10:25;;;;;;;;;9.00;6.00;;;;;;;;4990580;28;45283;-82
2023/06/14 07:12:50;;;;;;;;;9.00;5.75;;;;;;;;4997900;28;45564;-81
2023/06/14 07:15:16;;;;;;;;;5.50;5.50;;;;;;;;4997711;28;45724;-81
2023/06/14 07:17:41;;;;;;;;;6.75;6.25;;;;;;;;4988253;28;45528;-80
2023/06/14 07:20:13;;;;;;;;;10.50;5.50;;;;;;;;4997205;28;45464;-82
2023/06/14 07:22:41;;;;;;;;;9.00;5.00;;;;;;;;4997275;28;47208;-81
2023/06/14 07:25:13;;;;;;;;;8.50;5.75;;;;;;;;5007624;28;45675;-81
2023/06/14 07:27:38;;;;;;;;;7.50;4.75;;;;;;;;4989024;28;45573;-80
2023/06/14 07:30:04;;;;;;;;;7.67;5.33;;;;;;;;4992985;28;45407;-82
2023/06/14 07:32:29;;;;;;;;;3.50;1.50;;;;;;;;4995094;28;47001;-82
2023/06/14 07:34:55;;;;;;;;;6.33;5.67;;;;;;;;4994400;28;45374;-81
2023/06/14 07:37:20;;;;;;;;;7.00;7.00;;;;;;;;4993857;28;45519;-80
2023/06/14 07:39:45;;;;;;;;;8.33;6.00;;;;;;;;4994913;28;45387;-81
2023/06/14 07:42:10;;;;;;;;;6.00;6.00;;;;;;;;4993068;28;46926;-82
2023/06/14 07:44:36;;;;;;;;;6.00;5.00;;;;;;;;4992438;28;45647;-82
2023/06/14 07:47:01;;;;;;;;;7.75;5.00;;;;;;;;4994017;28;45715;-82
2023/06/14 07:49:27;;;;;;;;;7.50;6.00;;;;;;;;4989269;28;45697;-82
2023/06/14 07:51:53;;;;;;;;;7.75;6.00;;;;;;;;4993544;28;46284;-81
2023/06/14 07:54:18;;;;;;;;;11.25;8.00;;;;;;;;4987092;28;45840;-82
2023/06/14 07:56:43;;;;;;;;;9.33;7.33;;;;;;;;4994534;28;45399;-83
2023/06/14 07:59:09;;;;;;;;;9.33;5.00;;;;;;;;4973492;28;45466;-82
2023/06/14 08:01:34;;;;;;;;;8.00;6.00;;;;;;;;4990567;28;46716;-82
2023/06/14 08:03:59;;;;;;;;;4.00;4.00;;;;;;;;4992422;28;45597;-82
2023/06/14 08:06:25;;;;;;;;;11.00;5.67;;;;;;;;4994594;28;45404;-82
2023/06/14 08:08:50;;;;;;;;;7.00;6.75;;;;;;;;4993537;28;45670;-83
2023/06/14 08:11:15;;;;;;;;;5.33;4.33;;;;;;;;4995573;28;46120;-81
2023/06/14 08:13:40;;;;;;;;;5.00;4.00;;;;;;;;4995600;28;45580;-82
2023/06/14 08:16:05;;;;;;;;;4.00;4.00;;;;;;;;4995872;28;45405;-82
2023/06/14 08:18:30;;;;;;;;;6.00;4.00;;;;;;;;4995462;28;45410;-82
2023/06/14 08:20:57;;;;;;;;;7.33;5.00;;;;;;;;4992417;28;46038;-82
2023/06/14 08:23:22;;;;;;;;;5.00;4.00;;;;;;;;4996379;28;45659;-82
2023/06/14 08:25:48;;;;;;;;;6.75;6.75;;;;;;;;4993483;28;45490;-82
2023/06/14 08:28:13;;;;;;;;;3.75;3.75;;;;;;;;4989122;28;45851;-82
2023/06/14 08:30:38;;;;;;;;;5.67;5.33;;;;;;;;4995740;28;45597;-82
2023/06/14 08:33:03;;;;;;;;;7.00;6.00;;;;;;;;4993540;28;45648;-82
2023/06/14 08:35:28;;;;;;;;;6.00;5.67;;;;;;;;4993058;28;45419;-82
2023/06/14 08:37:54;;;;;;;;;5.25;5.25;;;;;;;;4993997;28;45472;-83
2023/06/14 08:40:21;;;;;;;;;6.67;5.00;;;;;;;;4990533;28;46190;-82
2023/06/14 08:42:56;;;;;;;;;7.00;5.25;;;;;;;;4984987;28;45480;-83
2023/06/14 08:45:21;;;;;;;;;10.00;7.00;;;;;;;;4993693;28;45465;-81
2023/06/14 08:47:51;;;;;;;;;7.00;5.75;;;;;;;;4988296;28;45497;-83
2023/06/14 08:50:19;;;;;;;;;3.25;3.25;;;;;;;;4972559;28;46893;-83
2023/06/14 08:52:49;;;;;;;;;6.00;4.00;;;;;;;;4989489;28;45464;-83
2023/06/14 08:55:15;;;;;;;;;9.50;5.75;;;;;;;;4985767;28;45272;-82
2023/06/14 08:57:41;;;;;;;;;8.25;7.50;;;;;;;;4983639;28;45521;-83
2023/06/14 09:00:13;;;;;;;;;7.00;5.00;;;;;;;;4991300;28;46383;-81
2023/06/14 09:02:43;;;;;;;;;5.50;4.00;;;;;;;;4994110;28;45870;-82
2023/06/14 09:05:08;;;;;;;;;10.00;5.00;;;;;;;;4991642;28;45445;-82
2023/06/14 09:07:33;;;;;;;;;5.00;5.00;;;;;;;;4991836;28;45736;-83
2023/06/14 09:10:12;;;;;;;;;8.67;7.00;;;;;;;;4994844;28;45590;-83
2023/06/14 09:12:37;;;;;;;;;5.00;5.00;;;;;;;;4984936;28;45330;-83
2023/06/14 09:15:05;;;;;;;;;4.50;4.50;;;;;;;;4993786;28;45394;-83
2023/06/14 09:17:32;;;;;;;;;5.00;4.00;;;;;;;;4994300;28;45461;-83
2023/06/14 09:19:58;;;;;;;;;4.25;4.00;;;;;;;;4994846;28;45716;-84
2023/06/14 09:22:23;;;;;;;;;5.25;4.75;;;;;;;;4995201;28;45433;-82
2023/06/14 09:24:48;;;;;;;;;5.67;5.00;;;;;;;;4994872;28;45452;-83
2023/06/14 09:27:16;;;;;;;;;5.67;5.67;;;;;;;;4994052;28;45532;-82
2023/06/14 09:29:41;;;;;;;;;5.00;5.00;;;;;;;;4991484;28;47163;-82
2023/06/14 09:32:07;;;;;;;;;7.33;5.00;;;;;;;;4989491;28;45552;-82
2023/06/14 09:34:33;;;;;;;;;7.75;5.50;;;;;;;;4991115;28;45329;-82
2023/06/14 09:36:58;;;;;;;;;6.75;5.00;;;;;;;;4988409;28;45381;-83
2023/06/14 09:39:24;;;;;;;;;4.67;4.00;;;;;;;;4994617;28;45907;-82
2023/06/14 09:41:50;;;;;;;;;5.75;4.00;;;;;;;;4994751;28;45413;-82
2023/06/14 09:44:16;;;;;;;;;6.00;3.67;;;;;;;;5009528;28;45348;-82
2023/06/14 09:46:42;;;;;;;;;5.50;3.75;;;;;;;;5008988;28;45441;-83
2023/06/14 09:49:08;;;;;;;;;6.67;4.00;;;;;;;;4994562;28;46043;-83
2023/06/14 09:51:34;;;;;;;;;5.50;3.50;;;;;;;;4994933;28;45735;-82
2023/06/14 09:54:01;;;;;;;;;6.25;5.25;;;;;;;;4994806;28;45302;-83
2023/06/14 09:56:29;;;;;;;;;3.50;3.50;;;;;;;;4995132;28;45552;-83
2023/06/14 09:58:58;;;;;;;;;6.75;4.00;;;;;;;;4994507;28;45524;-82
2023/06/14 10:01:25;;;;;;;;;8.50;6.00;;;;;;;;4995052;28;45472;-83
2023/06/14 10:03:53;;;;;;;;;6.00;3.00;;;;;;;;4994923;28;45467;-83
2023/06/14 10:06:20;;;;;;;;;4.75;3.75;;;;;;;;4995113;28;45646;-82
2023/06/14 10:08:46;;;;;;;;;6.25;3.75;;;;;;;;4993899;28;47438;-84
2023/06/14 10:11:12;;;;;;;;;5.25;4.00;;;;;;;;4997455;28;45327;-83
2023/06/14 10:13:38;;;;;;;;;4.00;4.00;;;;;;;;4998628;28;45328;-82
2023/06/14 10:16:15;;;;;;;;;3.33;3.33;;;;;;;;4998489;28;45382;-83
2023/06/14 10:18:58;;;;;;;;;8.75;4.00;;;;;;;;4997806;28;46746;-82
2023/06/14 10:21:30;;;;;;;;;6.25;4.50;;;;;;;;4998232;28;45887;-84
2023/06/14 10:23:57;;;;;;;;;7.50;5.75;;;;;;;;4997586;28;45475;-83
2023/06/14 10:26:23;;;;;;;;;5.50;4.00;;;;;;;;4998349;28;45407;-82
2023/06/14 10:29:11;;;;;;;;;7.00;4.75;;;;;;;;4997663;28;46398;-83
2023/06/14 10:31:43;;;;;;;;;4.00;4.00;;;;;;;;4984880;28;45409;-83
2023/06/14 10:34:09;;;;;;;;;5.50;4.00;;;;;;;;4998292;28;45405;-83
2023/06/14 10:36:35;;;;;;;;;8.00;5.00;;;;;;;;4997553;28;45781;-82
2023/06/14 10:39:26;;;;;;;;;5.00;5.00;;;;;;;;5017428;28;46349;-82
2023/06/14 10:41:53;;;;;;;;;5.00;4.50;;;;;;;;4999922;28;45430;-82
2023/06/14 10:44:21;;;;;;;;;4.25;4.25;;;;;;;;4997986;28;45396;-83
2023/06/14 10:46:47;;;;;;;;;6.25;3.00;;;;;;;;4998001;28;45338;-82
2023/06/14 10:49:12;;;;;;;;;6.00;3.25;;;;;;;;4997279;28;45437;-83
2023/06/14 10:51:46;;;;;;;;;6.67;4.33;;;;;;;;4997542;28;45358;-84
2023/06/14 10:54:14;;;;;;;;;3.25;1.50;;;;;;;;4997854;28;45488;-83
2023/06/14 10:56:46;;;;;;;;;6.25;4.75;;;;;;;;4997396;28;45400;-83
2023/06/14 10:59:11;;;;;;;;;6.25;4.75;;;;;;;;4996985;28;46354;-83
2023/06/14 11:01:38;;;;;;;;;4.00;4.00;;;;;;;;4997798;28;45321;-83
2023/06/14 11:04:10;;;;;;;;;6.50;4.25;;;;;;;;4997717;28;45410;-82
2023/06/14 11:06:45;;;;;;;;;5.00;4.00;;;;;;;;4997069;28;45724;-81
2023/06/14 11:09:30;;;;;;;;;5.75;3.50;;;;;;;;4979506;28;47289;-82
2023/06/14 11:11:56;;;;;;;;;7.00;5.00;;;;;;;;4997525;28;45658;-83
2023/06/14 11:14:21;;;;;;;;;3.00;3.00;;;;;;;;4997670;28;45646;-83
2023/06/14 11:16:49;;;;;;;;;6.00;4.33;;;;;;;;4997090;28;45530;-83
2023/06/14 11:19:17;;;;;;;;;8.50;3.50;;;;;;;;4997101;28;46289;-83
2023/06/14 11:21:42;;;;;;;;;4.00;4.00;;;;;;;;4996152;28;45952;-83
2023/06/14 11:24:10;;;;;;;;;4.33;3.00;;;;;;;;4997208;28;45275;-82
2023/06/14 11:26:37;;;;;;;;;7.00;4.00;;;;;;;;4997109;28;45366;-82
2023/06/14 11:29:02;;;;;;;;;9.75;3.00;;;;;;;;4996586;28;46389;-82
2023/06/14 11:31:28;;;;;;;;;5.33;3.33;;;;;;;;4996967;28;45471;-83
2023/06/14 11:33:54;;;;;;;;;5.00;4.00;;;;;;;;4996916;28;45377;-83
2023/06/14 11:36:19;;;;;;;;;7.00;4.00;;;;;;;;4996917;28;45270;-83
2023/06/14 11:38:44;;;;;;;;;5.00;3.33;;;;;;;;4996792;28;45433;-84
2023/06/14 11:41:10;;;;;;;;;3.00;3.00;;;;;;;;4996699;28;45648;-83
2023/06/14 11:43:36;;;;;;;;;6.00;5.00;;;;;;;;4997211;28;45425;-83
2023/06/14 11:46:01;;;;;;;;;5.50;5.00;;;;;;;;4994715;28;45342;-84
2023/06/14 11:48:40;;;;;;;;;4.00;4.00;;;;;;;;4990673;28;46141;-85
2023/06/14 11:51:08;;;;;;;;;5.25;5.00;;;;;;;;4996839;28;45471;-87
2023/06/14 11:53:34;;;;;;;;;9.50;4.00;;;;;;;;4998279;28;45271;-81
2023/06/14 11:56:00;;;;;;;;;6.50;4.75;;;;;;;;4994986;28;45639;-81
2023/06/14 11:58:26;;;;;;;;;7.75;4.75;;;;;;;;4998546;28;45894;-83
2023/06/14 12:00:52;;;;;;;;;3.75;3.25;;;;;;;;4997338;28;45413;-84
2023/06/14 12:03:22;;;;;;;;;3.50;2.50;;;;;;;;4993703;28;45388;-84
2023/06/14 12:05:47;;;;;;;;;7.50;5.00;;;;;;;;4973737;28;45240;-84
2023/06/14 12:08:17;;;;;;;;;7.00;6.33;;;;;;;;4988620;28;45994;-83
2023/06/14 12:10:45;;;;;;;;;5.50;4.50;;;;;;;;4997715;28;45309;-85
2023/06/14 12:13:10;;;;;;;;;6.25;3.75;;;;;;;;4993987;28;45231;-84
2023/06/14 12:15:36;;;;;;;;;5.00;4.25;;;;;;;;4982620;28;45933;-84
2023/06/14 12:18:06;;;;;;;;;5.75;4.00;;;;;;;;4994018;28;45402;-83
2023/06/14 12:20:31;;;;;;;;;6.00;5.00;;;;;;;;4982301;28;45406;-82
2023/06/14 12:22:58;;;;;;;;;6.50;6.00;;;;;;;;4994392;28;45777;-84
2023/06/14 12:25:28;;;;;;;;;5.00;4.25;;;;;;;;4993605;28;45612;-83
2023/06/14 12:27:54;;;;;;;;;5.50;4.25;;;;;;;;4990019;28;45589;-84
2023/06/14 12:30:19;;;;;;;;;6.50;5.00;;;;;;;;4986504;28;45345;-84
2023/06/14 12:32:45;;;;;;;;;8.25;5.00;;;;;;;;4990909;28;45499;-85
2023/06/14 12:35:10;;;;;;;;;5.75;5.50;;;;;;;;4992011;28;45737;-86
2023/06/14 12:37:36;;;;;;;;;3.50;1.00;;;;;;;;4999479;28;46317;-85
2023/06/14 12:40:01;;;;;;;;;6.75;3.75;;;;;;;;4993094;28;45825;-85
2023/06/14 12:42:27;;;;;;;;;6.00;5.00;;;;;;;;4992178;28;45452;-85
2023/06/14 12:44:52;;;;;;;;;3.67;3.67;;;;;;;;4993812;28;45428;-86
2023/06/14 12:47:17;;;;;;;;;6.00;5.00;;;;;;;;4994204;28;45696;-86
2023/06/14 12:49:42;;;;;;;;;4.75;4.25;;;;;;;;5001578;28;45364;-85
2023/06/14 12:52:07;;;;;;;;;6.00;6.00;;;;;;;;4994859;28;45550;-86
2023/06/14 12:54:33;;;;;;;;;6.00;4.00;;;;;;;;4995760;28;45505;-84
2023/06/14 12:56:58;;;;;;;;;5.50;5.50;;;;;;;;4993987;28;45753;-86
2023/06/14 12:59:23;;;;;;;;;6.67;4.00;;;;;;;;4991213;28;45432;-86
2023/06/14 13:01:50;;;;;;;;;5.67;5.00;;;;;;;;4991887;28;45472;-85
2023/06/14 13:04:15;;;;;;;;;7.00;4.00;;;;;;;;4990646;28;45334;-86
2023/06/14 13:06:40;;;;;;;;;6.25;5.25;;;;;;;;4995147;28;45566;-85
2023/06/14 13:09:05;;;;;;;;;9.33;5.33;;;;;;;;4992627;28;45629;-88
2023/06/14 13:11:31;;;;;;;;;5.00;3.67;;;;;;;;4996282;28;45441;-86
2023/06/14 13:13:56;;;;;;;;;4.33;4.00;;;;;;;;4994618;28;45544;-85
2023/06/14 13:16:21;;;;;;;;;7.00;5.67;;;;;;;;4993564;28;46155;-84
2023/06/14 13:18:46;;;;;;;;;6.00;5.00;;;;;;;;4993522;28;45472;-85
2023/06/14 13:21:12;;;;;;;;;4.67;3.00;;;;;;;;4994258;28;45508;-86
2023/06/14 13:23:37;;;;;;;;;8.00;4.33;;;;;;;;4995690;28;45739;-84
2023/06/14 13:26:02;;;;;;;;;8.00;6.00;;;;;;;;4990385;28;46433;-86
2023/06/14 13:28:27;;;;;;;;;5.67;4.33;;;;;;;;4987767;28;45642;-84
2023/06/14 13:30:53;;;;;;;;;4.50;2.75;;;;;;;;4992883;28;45458;-85
2023/06/14 13:33:18;;;;;;;;;4.00;3.33;;;;;;;;4993751;28;45602;-86
2023/06/14 13:35:43;;;;;;;;;10.00;4.33;;;;;;;;4995230;28;46205;-85
2023/06/14 13:38:09;;;;;;;;;6.67;5.00;;;;;;;;4995139;28;45397;-87
2023/06/14 13:40:35;;;;;;;;;5.25;5.00;;;;;;;;4995130;28;45525;-85
2023/06/14 13:43:00;;;;;;;;;7.00;4.00;;;;;;;;4990319;28;45289;-86
2023/06/14 13:45:25;;;;;;;;;5.50;3.75;;;;;;;;4992318;28;45405;-87
2023/06/14 13:47:51;;;;;;;;;4.75;4.75;;;;;;;;4976137;28;45385;-86
2023/06/14 13:50:17;;;;;;;;;4.75;4.25;;;;;;;;4995140;28;45377;-85
2023/06/14 13:52:42;;;;;;;;;8.00;3.25;;;;;;;;4989419;28;45471;-87
2023/06/14 13:55:08;;;;;;;;;5.67;4.67;;;;;;;;4993119;28;46442;-86
2023/06/14 13:57:33;;;;;;;;;7.50;5.50;;;;;;;;4995136;28;45442;-85
2023/06/14 14:00:01;;;;;;;;;3.50;3.50;;;;;;;;4990920;28;45619;-91
2023/06/14 14:02:31;;;;;;;;;6.00;6.00;;;;;;;;4984939;28;45294;-92
2023/06/14 14:05:14;;;;;;;;;5.75;4.50;;;;;;;;4995233;28;45471;-89
2023/06/14 14:07:39;;;;;;;;;5.00;4.00;;;;;;;;4978405;28;45673;-90
2023/06/14 14:10:05;;;;;;;;;5.33;5.33;;;;;;;;4990352;28;45452;-93
2023/06/14 14:12:30;;;;;;;;;4.50;4.00;;;;;;;;5009932;28;45539;-90
2023/06/14 14:14:56;;;;;;;;;5.00;5.00;;;;;;;;4976703;28;47167;-87
2023/06/14 14:17:21;;;;;;;;;6.25;4.25;;;;;;;;4977480;28;45770;-89
2023/06/14 14:19:48;;;;;;;;;7.25;4.00;;;;;;;;4989124;28;45565;-88
2023/06/14 14:22:14;;;;;;;;;5.25;4.00;;;;;;;;5001219;28;45492;-88
2023/06/14 14:24:39;;;;;;;;;7.50;4.75;;;;;;;;4995537;28;46448;-89
2023/06/14 14:27:05;;;;;;;;;5.75;4.00;;;;;;;;5001891;28;45373;-90
2023/06/14 14:29:30;;;;;;;;;6.25;4.50;;;;;;;;5015118;28;45467;-88
2023/06/14 14:32:06;;;;;;;;;4.00;4.00;;;;;;;;4997897;28;45524;-91
2023/06/14 14:34:31;;;;;;;;;6.00;4.75;;;;;;;;5004411;28;45558;-89